sensor_id;sensor_type;location;lat;lon;timestamp;pressure;altitude;pressure_sealevel;temperature;humidity
59987;BME280;46181;51.498;5.392;2023-11-19T00:01:00;100812.3;;;17.74;68.96289
59987;BME280;46181;51.498;5.392;2023-11-19T00:05:30;100815.7;;;17.77;68.9541
59987;BME280;46181;51.498;5.392;2023-11-19T00:10:00;100797.7;;;17.79;68.92383
59987;BME280;46181;51.498;5.392;2023-11-19T00:14:30;100793.2;;;17.81;68.89258
59987;BME280;46181;51.498;5.392;2023-11-19T00:19:01;100781.4;;;17.84;68.95508
59987;BME280;46181;51.498;5.392;2023-11-19T00:23:30;100767.5;;;17.85;68.89844
59987;BME280;46181;51.498;5.392;2023-11-19T00:28:00;100757.3;;;17.83;68.9082
59987;BME280;46181;51.498;5.392;2023-11-19T00:32:30;100741.3;;;17.83;68.9082
59987;BME280;46181;51.498;5.392;2023-11-19T00:37:01;100740.9;;;17.79;68.93555
59987;BME280;46181;51.498;5.392;2023-11-19T00:41:30;100750.3;;;17.76;69.05664
59987;BME280;46181;51.498;5.392;2023-11-19T00:46:00;100756;;;17.77;69.03418
59987;BME280;46181;51.498;5.392;2023-11-19T00:50:30;100754.3;;;17.74;68.93945
59987;BME280;46181;51.498;5.392;2023-11-19T00:55:00;100759.7;;;17.67;68.98535
59987;BME280;46181;51.498;5.392;2023-11-19T00:59:30;100759;;;17.63;69.08301
59987;BME280;46181;51.498;5.392;2023-11-19T01:04:00;100757.5;;;17.6;69.13379
59987;BME280;46181;51.498;5.392;2023-11-19T01:08:30;100754.3;;;17.6;69.08984
59987;BME280;46181;51.498;5.392;2023-11-19T01:13:00;100769.2;;;17.59;69.1543
59987;BME280;46181;51.498;5.392;2023-11-19T01:17:30;100767;;;17.61;69.19238
59987;BME280;46181;51.498;5.392;2023-11-19T01:22:00;100756.3;;;17.61;69.14746
59987;BME280;46181;51.498;5.392;2023-11-19T01:26:30;100744.9;;;17.59;69.09863
59987;BME280;46181;51.498;5.392;2023-11-19T01:31:03;100743.3;;;17.56;69.12891
59987;BME280;46181;51.498;5.392;2023-11-19T01:35:30;100737.5;;;17.54;68.95508
59987;BME280;46181;51.498;5.392;2023-11-19T01:40:00;100734;;;17.46;68.94238
59987;BME280;46181;51.498;5.392;2023-11-19T01:44:30;100752.3;;;17.41;69.03613
59987;BME280;46181;51.498;5.392;2023-11-19T01:49:01;100756.8;;;17.45;69.2832
59987;BME280;46181;51.498;5.392;2023-11-19T01:53:30;100743.8;;;17.49;69.15332
59987;BME280;46181;51.498;5.392;2023-11-19T01:58:02;100747.9;;;17.51;69.07422
59987;BME280;46181;51.498;5.392;2023-11-19T02:02:31;100752.1;;;17.47;68.76172
59987;BME280;46181;51.498;5.392;2023-11-19T02:07:03;100731.3;;;17.42;68.90234
59987;BME280;46181;51.498;5.392;2023-11-19T02:11:30;100753.4;;;17.5;68.91406
59987;BME280;46181;51.498;5.392;2023-11-19T02:16:00;100739.2;;;17.47;68.72852
59987;BME280;46181;51.498;5.392;2023-11-19T02:20:31;100738.2;;;17.38;68.48535
59987;BME280;46181;51.498;5.392;2023-11-19T02:25:04;100732.3;;;17.16;68.28027
59987;BME280;46181;51.498;5.392;2023-11-19T02:29:30;100729.4;;;17.03;68.2373
59987;BME280;46181;51.498;5.392;2023-11-19T02:34:00;100729.4;;;16.88;68.31641
59987;BME280;46181;51.498;5.392;2023-11-19T02:38:30;100732;;;16.76;68.36621
59987;BME280;46181;51.498;5.392;2023-11-19T02:43:01;100718.4;;;16.65;68.41895
59987;BME280;46181;51.498;5.392;2023-11-19T02:47:30;100709.6;;;16.57;68.42773
59987;BME280;46181;51.498;5.392;2023-11-19T02:52:00;100718.3;;;16.48;68.40332
59987;BME280;46181;51.498;5.392;2023-11-19T02:56:30;100717.8;;;16.41;68.41602
59987;BME280;46181;51.498;5.392;2023-11-19T03:01:01;100712.7;;;16.35;68.48633
59987;BME280;46181;51.498;5.392;2023-11-19T03:05:30;100712.9;;;16.3;68.40918
59987;BME280;46181;51.498;5.392;2023-11-19T03:10:00;100720.1;;;16.24;68.41113
59987;BME280;46181;51.498;5.392;2023-11-19T03:14:30;100713.5;;;16.2;68.42773
59987;BME280;46181;51.498;5.392;2023-11-19T03:19:00;100715.7;;;16.15;68.39648
59987;BME280;46181;51.498;5.392;2023-11-19T03:23:30;100734.8;;;16.13;68.41699
59987;BME280;46181;51.498;5.392;2023-11-19T03:28:00;100724.2;;;16.12;68.39258
59987;BME280;46181;51.498;5.392;2023-11-19T03:32:30;100725.9;;;16.09;68.25195
59987;BME280;46181;51.498;5.392;2023-11-19T03:37:00;100735.2;;;16.05;68.24512
59987;BME280;46181;51.498;5.392;2023-11-19T03:41:31;100719.5;;;16.05;68.43848
59987;BME280;46181;51.498;5.392;2023-11-19T03:46:00;100721.3;;;16.12;68.37012
59987;BME280;46181;51.498;5.392;2023-11-19T03:50:30;100730.2;;;16.07;68.11133
59987;BME280;46181;51.498;5.392;2023-11-19T03:55:00;100736.3;;;16.01;67.98926
59987;BME280;46181;51.498;5.392;2023-11-19T03:59:31;100727.2;;;15.96;67.98145
59987;BME280;46181;51.498;5.392;2023-11-19T04:04:00;100733;;;15.89;67.97168
59987;BME280;46181;51.498;5.392;2023-11-19T04:08:31;100730.3;;;15.86;67.90918
59987;BME280;46181;51.498;5.392;2023-11-19T04:13:00;100730.3;;;15.82;68.11816
59987;BME280;46181;51.498;5.392;2023-11-19T04:17:31;100736.7;;;15.86;68.38672
59987;BME280;46181;51.498;5.392;2023-11-19T04:22:00;100739.8;;;15.94;68.27441
59987;BME280;46181;51.498;5.392;2023-11-19T04:26:31;100745.5;;;15.92;68.00977
59987;BME280;46181;51.498;5.392;2023-11-19T04:31:01;100733.6;;;15.87;67.93359
59987;BME280;46181;51.498;5.392;2023-11-19T04:35:31;100742.6;;;15.84;67.83789
59987;BME280;46181;51.498;5.392;2023-11-19T04:40:01;100742.6;;;15.82;67.89258
59987;BME280;46181;51.498;5.392;2023-11-19T04:44:30;100740.8;;;15.8;67.88965
59987;BME280;46181;51.498;5.392;2023-11-19T04:49:01;100745.3;;;15.78;67.8291
59987;BME280;46181;51.498;5.392;2023-11-19T04:53:31;100755.5;;;15.77;67.77051
59987;BME280;46181;51.498;5.392;2023-11-19T04:58:02;100751.9;;;15.72;67.70508
59987;BME280;46181;51.498;5.392;2023-11-19T05:02:30;100748.2;;;15.69;67.73535
59987;BME280;46181;51.498;5.392;2023-11-19T05:07:01;100756.4;;;15.68;67.74707
59987;BME280;46181;51.498;5.392;2023-11-19T05:11:31;100756.7;;;15.65;67.64941
59987;BME280;46181;51.498;5.392;2023-11-19T05:16:01;100758.7;;;15.59;67.59668
59987;BME280;46181;51.498;5.392;2023-11-19T05:20:31;100770.3;;;15.57;67.57129
59987;BME280;46181;51.498;5.392;2023-11-19T05:25:01;100767.9;;;15.57;67.54688
59987;BME280;46181;51.498;5.392;2023-11-19T05:29:31;100770.2;;;15.54;67.49609
59987;BME280;46181;51.498;5.392;2023-11-19T05:34:01;100774.3;;;15.51;67.44629
59987;BME280;46181;51.498;5.392;2023-11-19T05:38:31;100774.8;;;15.48;67.44238
59987;BME280;46181;51.498;5.392;2023-11-19T05:43:01;100779.5;;;15.44;67.32324
59987;BME280;46181;51.498;5.392;2023-11-19T05:47:31;100773.4;;;15.39;67.28125
59987;BME280;46181;51.498;5.392;2023-11-19T05:52:01;100778;;;15.38;67.30273
59987;BME280;46181;51.498;5.392;2023-11-19T05:56:31;100780.8;;;15.34;67.2627
59987;BME280;46181;51.498;5.392;2023-11-19T06:01:01;100786.8;;;15.32;67.21387
59987;BME280;46181;51.498;5.392;2023-11-19T06:05:31;100785.4;;;15.26;67.20508
59987;BME280;46181;51.498;5.392;2023-11-19T06:10:01;100778.9;;;15.22;67.24414
59987;BME280;46181;51.498;5.392;2023-11-19T06:14:31;100771.4;;;15.19;67.2168
59987;BME280;46181;51.498;5.392;2023-11-19T06:19:01;100774;;;15.19;67.23926
59987;BME280;46181;51.498;5.392;2023-11-19T06:23:31;100773;;;15.18;67.2041
59987;BME280;46181;51.498;5.392;2023-11-19T06:28:01;100786.2;;;15.13;67.12793
59987;BME280;46181;51.498;5.392;2023-11-19T06:32:31;100779.9;;;15.09;67.06543
59987;BME280;46181;51.498;5.392;2023-11-19T06:37:01;100773.6;;;15.06;67.0957
59987;BME280;46181;51.498;5.392;2023-11-19T06:41:31;100778;;;15.07;67.03906
59987;BME280;46181;51.498;5.392;2023-11-19T06:46:01;100775.6;;;15.05;66.95801
59987;BME280;46181;51.498;5.392;2023-11-19T06:50:31;100773.5;;;14.99;67.00488
59987;BME280;46181;51.498;5.392;2023-11-19T06:55:01;100784.6;;;14.97;67.04688
59987;BME280;46181;51.498;5.392;2023-11-19T06:59:31;100791.5;;;14.96;67.05664
59987;BME280;46181;51.498;5.392;2023-11-19T07:04:01;100807.2;;;14.94;67.01953
59987;BME280;46181;51.498;5.392;2023-11-19T07:08:31;100803.5;;;14.93;67.0752
59987;BME280;46181;51.498;5.392;2023-11-19T07:13:01;100806.3;;;14.92;66.98145
59987;BME280;46181;51.498;5.392;2023-11-19T07:17:31;100817;;;14.94;66.95215
59987;BME280;46181;51.498;5.392;2023-11-19T07:22:01;100821;;;14.91;67.04785
59987;BME280;46181;51.498;5.392;2023-11-19T07:26:31;100828.3;;;14.94;67.00879
59987;BME280;46181;51.498;5.392;2023-11-19T07:31:01;100837.9;;;14.94;66.97461
59987;BME280;46181;51.498;5.392;2023-11-19T07:35:31;100842.9;;;15;67.02832
59987;BME280;46181;51.498;5.392;2023-11-19T07:40:01;100835.3;;;15.01;66.92871
59987;BME280;46181;51.498;5.392;2023-11-19T07:44:31;100838;;;15.03;66.93262
59987;BME280;46181;51.498;5.392;2023-11-19T07:49:01;100832.5;;;15.04;66.93262
59987;BME280;46181;51.498;5.392;2023-11-19T07:53:31;100836.7;;;15.07;66.93652
59987;BME280;46181;51.498;5.392;2023-11-19T07:58:01;100829.8;;;15.12;66.92285
59987;BME280;46181;51.498;5.392;2023-11-19T08:02:31;100834.2;;;15.17;66.88379
59987;BME280;46181;51.498;5.392;2023-11-19T08:07:01;100835.2;;;15.21;66.7998
59987;BME280;46181;51.498;5.392;2023-11-19T08:11:31;100850;;;15.28;66.76563
59987;BME280;46181;51.498;5.392;2023-11-19T08:16:01;100845.3;;;15.34;66.80762
59987;BME280;46181;51.498;5.392;2023-11-19T08:20:31;100845.2;;;15.42;66.66211
59987;BME280;46181;51.498;5.392;2023-11-19T08:25:01;100842.3;;;15.49;66.6377
59987;BME280;46181;51.498;5.392;2023-11-19T08:29:31;100841.5;;;15.55;66.55664
59987;BME280;46181;51.498;5.392;2023-11-19T08:34:01;100848.1;;;15.62;66.38379
59987;BME280;46181;51.498;5.392;2023-11-19T08:38:31;100844.7;;;15.69;66.39453
59987;BME280;46181;51.498;5.392;2023-11-19T08:43:01;100838.9;;;15.76;66.29199
59987;BME280;46181;51.498;5.392;2023-11-19T08:47:31;100853.9;;;15.83;66.23633
59987;BME280;46181;51.498;5.392;2023-11-19T08:52:01;100856.8;;;15.89;66.17578
59987;BME280;46181;51.498;5.392;2023-11-19T08:56:31;100857.2;;;15.98;66.0293
59987;BME280;46181;51.498;5.392;2023-11-19T09:01:01;100855.5;;;16.03;66.01465
59987;BME280;46181;51.498;5.392;2023-11-19T09:05:31;100852.4;;;16.12;65.86816
59987;BME280;46181;51.498;5.392;2023-11-19T09:10:01;100857.1;;;16.25;65.76172
59987;BME280;46181;51.498;5.392;2023-11-19T09:14:31;100853.2;;;16.36;65.83594
59987;BME280;46181;51.498;5.392;2023-11-19T09:19:01;100851.8;;;16.6;65.8252
59987;BME280;46181;51.498;5.392;2023-11-19T09:23:31;100848.7;;;16.77;65.40527
59987;BME280;46181;51.498;5.392;2023-11-19T09:28:01;100851;;;16.91;65.13184
59987;BME280;46181;51.498;5.392;2023-11-19T09:32:31;100841.9;;;16.89;64.69629
59987;BME280;46181;51.498;5.392;2023-11-19T09:37:01;100834.4;;;16.88;64.79688
59987;BME280;46181;51.498;5.392;2023-11-19T09:41:32;100837.4;;;16.91;64.53906
59987;BME280;46181;51.498;5.392;2023-11-19T09:46:02;100832.9;;;16.97;64.68359
59987;BME280;46181;51.498;5.392;2023-11-19T09:50:31;100847.2;;;17.19;64.56836
59987;BME280;46181;51.498;5.392;2023-11-19T09:55:01;100856;;;17.43;64.39648
59987;BME280;46181;51.498;5.392;2023-11-19T09:59:31;100849.9;;;17.59;63.81348
59987;BME280;46181;51.498;5.392;2023-11-19T10:04:03;100852.3;;;17.6;63.78223
59987;BME280;46181;51.498;5.392;2023-11-19T10:08:31;100830.2;;;17.68;63.58789
59987;BME280;46181;51.498;5.392;2023-11-19T10:13:01;100841.3;;;17.82;63.24316
59987;BME280;46181;51.498;5.392;2023-11-19T10:17:31;100835.7;;;17.87;63.38672
59987;BME280;46181;51.498;5.392;2023-11-19T10:22:05;100847.7;;;17.94;62.88281
59987;BME280;46181;51.498;5.392;2023-11-19T10:26:31;100844.4;;;18.05;62.81836
59987;BME280;46181;51.498;5.392;2023-11-19T10:31:05;100840.3;;;18.12;62.55371
59987;BME280;46181;51.498;5.392;2023-11-19T10:35:31;100842.7;;;18.13;61.91406
59987;BME280;46181;51.498;5.392;2023-11-19T10:40:04;100837.3;;;17.94;61.63672
59987;BME280;46181;51.498;5.392;2023-11-19T10:44:48;100820;;;17.75;61.75879
59987;BME280;46181;51.498;5.392;2023-11-19T10:49:01;100831.4;;;17.88;61.53613
59987;BME280;46181;51.498;5.392;2023-11-19T10:53:32;100840.6;;;17.93;61.50977
59987;BME280;46181;51.498;5.392;2023-11-19T10:58:02;100843.9;;;18.1;61.24609
59987;BME280;46181;51.498;5.392;2023-11-19T11:02:33;100842.2;;;18.21;60.95313
59987;BME280;46181;51.498;5.392;2023-11-19T11:07:03;100830.8;;;18.32;60.26953
59987;BME280;46181;51.498;5.392;2023-11-19T11:11:31;100826.9;;;18.33;60.3623
59987;BME280;46181;51.498;5.392;2023-11-19T11:16:01;100817.8;;;18.32;60.1543
59987;BME280;46181;51.498;5.392;2023-11-19T11:20:31;100823.1;;;18.14;59.88965
59987;BME280;46181;51.498;5.392;2023-11-19T11:25:19;100818.2;;;17.73;60.31543
59987;BME280;46181;51.498;5.392;2023-11-19T11:29:37;100827.5;;;17.63;60.73633
59987;BME280;46181;51.498;5.392;2023-11-19T11:34:15;100816.4;;;17.47;61.12598
59987;BME280;46181;51.498;5.392;2023-11-19T11:38:31;100811.8;;;17.35;60.75586
59987;BME280;46181;51.498;5.392;2023-11-19T11:43:01;100810;;;17.15;61.33301
59987;BME280;46181;51.498;5.392;2023-11-19T11:52:10;100795.9;;;16.92;62.20215
59987;BME280;46181;51.498;5.392;2023-11-19T11:56:36;100789.9;;;16.91;62.70313
59987;BME280;46181;51.498;5.392;2023-11-19T12:01:02;100788.4;;;16.94;63.16309
59987;BME280;46181;51.498;5.392;2023-11-19T12:05:31;100785;;;17.08;63.20605
59987;BME280;46181;51.498;5.392;2023-11-19T12:10:09;100790.8;;;17.14;63.08984
59987;BME280;46181;51.498;5.392;2023-11-19T12:15:04;100777.2;;;17.09;63.25293
59987;BME280;46181;51.498;5.392;2023-11-19T12:19:05;100772.6;;;17.32;62.9668
59987;BME280;46181;51.498;5.392;2023-11-19T12:23:31;100763.2;;;17.49;62.65918
59987;BME280;46181;51.498;5.392;2023-11-19T12:28:02;100752.4;;;17.59;62.46777
59987;BME280;46181;51.498;5.392;2023-11-19T12:32:31;100762.5;;;17.53;62.13965
59987;BME280;46181;51.498;5.392;2023-11-19T12:37:02;100783.6;;;17.49;61.89453
59987;BME280;46181;51.498;5.392;2023-11-19T12:41:31;100779.2;;;17.56;61.92676
59987;BME280;46181;51.498;5.392;2023-11-19T12:46:01;100786.5;;;17.66;61.92871
59987;BME280;46181;51.498;5.392;2023-11-19T12:50:31;100779.8;;;17.72;61.52637
59987;BME280;46181;51.498;5.392;2023-11-19T12:55:01;100778.4;;;17.72;61.33203
59987;BME280;46181;51.498;5.392;2023-11-19T12:59:31;100782.3;;;17.7;61.19238
59987;BME280;46181;51.498;5.392;2023-11-19T13:04:01;100773.3;;;17.66;61.32324
59987;BME280;46181;51.498;5.392;2023-11-19T13:08:35;100772;;;17.69;61.35059
59987;BME280;46181;51.498;5.392;2023-11-19T13:13:12;100774.3;;;17.68;61.28027
59987;BME280;46181;51.498;5.392;2023-11-19T13:17:31;100795.1;;;17.87;60.99707
59987;BME280;46181;51.498;5.392;2023-11-19T13:22:01;100790.5;;;17.75;60.70703
59987;BME280;46181;51.498;5.392;2023-11-19T13:26:31;100782.6;;;17.57;60.95605
59987;BME280;46181;51.498;5.392;2023-11-19T13:31:01;100777.3;;;17.4;61.25293
59987;BME280;46181;51.498;5.392;2023-11-19T13:35:31;100766.8;;;17.27;61.46289
59987;BME280;46181;51.498;5.392;2023-11-19T13:40:01;100757.4;;;17.14;61.68652
59987;BME280;46181;51.498;5.392;2023-11-19T13:44:31;100768.1;;;17.07;62.00586
59987;BME280;46181;51.498;5.392;2023-11-19T13:49:01;100757.9;;;17.1;62.09082
59987;BME280;46181;51.498;5.392;2023-11-19T13:53:31;100762.4;;;17.19;62.06934
59987;BME280;46181;51.498;5.392;2023-11-19T13:58:01;100761.7;;;17.31;61.8457
59987;BME280;46181;51.498;5.392;2023-11-19T14:02:31;100744.8;;;17.35;61.66895
59987;BME280;46181;51.498;5.392;2023-11-19T14:07:01;100762.3;;;17.32;61.52832
59987;BME280;46181;51.498;5.392;2023-11-19T14:11:31;100759.9;;;17.33;61.68848
59987;BME280;46181;51.498;5.392;2023-11-19T14:16:02;100765;;;17.37;61.79688
59987;BME280;46181;51.498;5.392;2023-11-19T14:20:31;100753.1;;;17.31;61.76563
59987;BME280;46181;51.498;5.392;2023-11-19T14:25:01;100748.9;;;17.32;61.98438
59987;BME280;46181;51.498;5.392;2023-11-19T14:29:31;100742;;;17.35;61.98926
59987;BME280;46181;51.498;5.392;2023-11-19T14:34:01;100743.7;;;17.37;61.7627
59987;BME280;46181;51.498;5.392;2023-11-19T14:38:31;100750.1;;;17.33;61.8252
59987;BME280;46181;51.498;5.392;2023-11-19T14:43:01;100743;;;17.27;61.66895
59987;BME280;46181;51.498;5.392;2023-11-19T14:47:31;100744.5;;;17.19;61.98926
59987;BME280;46181;51.498;5.392;2023-11-19T14:52:01;100743;;;17.19;62.06934
59987;BME280;46181;51.498;5.392;2023-11-19T14:56:31;100737.5;;;17.18;62.0791
59987;BME280;46181;51.498;5.392;2023-11-19T15:01:01;100728.9;;;17.12;61.8877
59987;BME280;46181;51.498;5.392;2023-11-19T15:05:31;100736.5;;;16.97;61.88965
59987;BME280;46181;51.498;5.392;2023-11-19T15:10:01;100725.6;;;16.81;62.2666
59987;BME280;46181;51.498;5.392;2023-11-19T15:14:31;100730.2;;;16.7;62.58203
59987;BME280;46181;51.498;5.392;2023-11-19T15:19:01;100737.4;;;16.63;62.90332
59987;BME280;46181;51.498;5.392;2023-11-19T15:23:31;100734.9;;;16.62;63.19824
59987;BME280;46181;51.498;5.392;2023-11-19T15:28:01;100734.8;;;16.61;63.30957
59987;BME280;46181;51.498;5.392;2023-11-19T15:32:31;100739;;;16.52;63.31934
59987;BME280;46181;51.498;5.392;2023-11-19T15:37:01;100731.9;;;16.52;63.51465
59987;BME280;46181;51.498;5.392;2023-11-19T15:41:31;100726;;;16.53;63.56152
59987;BME280;46181;51.498;5.392;2023-11-19T15:46:01;100724;;;16.53;63.65234
59987;BME280;46181;51.498;5.392;2023-11-19T15:50:31;100724;;;16.55;63.68945
59987;BME280;46181;51.498;5.392;2023-11-19T15:55:01;100730.3;;;16.59;63.70508
59987;BME280;46181;51.498;5.392;2023-11-19T15:59:31;100722.9;;;16.61;63.73047
59987;BME280;46181;51.498;5.392;2023-11-19T16:04:01;100726.8;;;16.63;63.71191
59987;BME280;46181;51.498;5.392;2023-11-19T16:08:31;100726;;;16.62;63.66406
59987;BME280;46181;51.498;5.392;2023-11-19T16:13:01;100728;;;16.61;63.73047
59987;BME280;46181;51.498;5.392;2023-11-19T16:17:31;100728;;;16.6;63.77539
59987;BME280;46181;51.498;5.392;2023-11-19T16:22:01;100715.9;;;16.51;63.68262
59987;BME280;46181;51.498;5.392;2023-11-19T16:26:31;100721.1;;;16.44;63.78711
59987;BME280;46181;51.498;5.392;2023-11-19T16:31:01;100716.3;;;16.36;63.92285
59987;BME280;46181;51.498;5.392;2023-11-19T16:35:31;100714.5;;;16.33;64.06641
59987;BME280;46181;51.498;5.392;2023-11-19T16:40:01;100708.5;;;16.31;64.24609
59987;BME280;46181;51.498;5.392;2023-11-19T16:44:31;100701.6;;;16.28;64.29883
59987;BME280;46181;51.498;5.392;2023-11-19T16:49:01;100710.3;;;16.25;64.27148
59987;BME280;46181;51.498;5.392;2023-11-19T16:53:31;100716.8;;;16.21;64.37988
59987;BME280;46181;51.498;5.392;2023-11-19T16:58:01;100718.9;;;16.18;64.45508
59987;BME280;46181;51.498;5.392;2023-11-19T17:02:31;100726.4;;;16.14;64.59668
59987;BME280;46181;51.498;5.392;2023-11-19T17:07:01;100723.6;;;16.11;64.69531
59987;BME280;46181;51.498;5.392;2023-11-19T17:11:31;100717.4;;;16.06;64.8252
59987;BME280;46181;51.498;5.392;2023-11-19T17:16:01;100716.1;;;16.03;65.03613
59987;BME280;46181;51.498;5.392;2023-11-19T17:20:31;100709.8;;;16.01;65.19238
59987;BME280;46181;51.498;5.392;2023-11-19T17:25:01;100719.6;;;16;65.29395
59987;BME280;46181;51.498;5.392;2023-11-19T17:29:31;100715.8;;;16.01;65.38574
59987;BME280;46181;51.498;5.392;2023-11-19T17:34:01;100706.3;;;16.01;65.4541
59987;BME280;46181;51.498;5.392;2023-11-19T17:38:31;100735.7;;;15.98;65.53027
59987;BME280;46181;51.498;5.392;2023-11-19T17:43:01;100704;;;15.98;65.66602
59987;BME280;46181;51.498;5.392;2023-11-19T17:47:31;100709.1;;;16.01;65.80664
59987;BME280;46181;51.498;5.392;2023-11-19T17:52:01;100696.6;;;16.03;65.83203
59987;BME280;46181;51.498;5.392;2023-11-19T17:56:31;100703.9;;;16.06;65.85938
59987;BME280;46181;51.498;5.392;2023-11-19T18:01:02;100704.3;;;16.08;65.79395
59987;BME280;46181;51.498;5.392;2023-11-19T18:05:31;100699.8;;;16.04;65.66309
59987;BME280;46181;51.498;5.392;2023-11-19T18:10:01;100704.2;;;15.98;65.60938
59987;BME280;46181;51.498;5.392;2023-11-19T18:14:31;100703;;;15.93;65.71387
59987;BME280;46181;51.498;5.392;2023-11-19T18:19:01;100701;;;15.89;65.78809
59987;BME280;46181;51.498;5.392;2023-11-19T18:23:31;100700.7;;;15.86;65.88672
59987;BME280;46181;51.498;5.392;2023-11-19T18:28:01;100700;;;15.83;66.04297
59987;BME280;46181;51.498;5.392;2023-11-19T18:32:31;100703.9;;;15.84;66.07715
59987;BME280;46181;51.498;5.392;2023-11-19T18:37:01;100697.6;;;15.81;66.16406
59987;BME280;46181;51.498;5.392;2023-11-19T18:41:32;100705.8;;;15.81;66.32324
59987;BME280;46181;51.498;5.392;2023-11-19T18:46:01;100704.1;;;15.8;66.30859
59987;BME280;46181;51.498;5.392;2023-11-19T18:50:31;100702.6;;;15.78;66.37598
59987;BME280;46181;51.498;5.392;2023-11-19T18:55:01;100704.5;;;15.8;66.51465
59987;BME280;46181;51.498;5.392;2023-11-19T18:59:31;100697.7;;;15.82;66.49512
59987;BME280;46181;51.498;5.392;2023-11-19T19:04:01;100699.8;;;15.82;66.67676
59987;BME280;46181;51.498;5.392;2023-11-19T19:08:31;100692.4;;;15.85;66.61426
59987;BME280;46181;51.498;5.392;2023-11-19T19:13:01;100698.1;;;15.88;66.68457
59987;BME280;46181;51.498;5.392;2023-11-19T19:17:31;100692.9;;;15.92;66.70313
59987;BME280;46181;51.498;5.392;2023-11-19T19:22:01;100686.4;;;15.96;66.66309
59987;BME280;46181;51.498;5.392;2023-11-19T19:26:31;100681.3;;;16.01;66.69434
59987;BME280;46181;51.498;5.392;2023-11-19T19:31:01;100682.1;;;16;66.7041
59987;BME280;46181;51.498;5.392;2023-11-19T19:35:31;100682.1;;;16.04;66.75488
59987;BME280;46181;51.498;5.392;2023-11-19T19:40:01;100686.8;;;16.05;66.8125
59987;BME280;46181;51.498;5.392;2023-11-19T19:44:31;100689.9;;;16.07;66.79297
59987;BME280;46181;51.498;5.392;2023-11-19T19:49:01;100685;;;16.1;66.84277
59987;BME280;46181;51.498;5.392;2023-11-19T19:53:31;100681.3;;;16.12;66.83496
59987;BME280;46181;51.498;5.392;2023-11-19T19:58:01;100690.1;;;16.16;66.76074
59987;BME280;46181;51.498;5.392;2023-11-19T20:02:31;100687.5;;;16.2;66.66504
59987;BME280;46181;51.498;5.392;2023-11-19T20:07:05;100687.4;;;16.21;66.62109
59987;BME280;46181;51.498;5.392;2023-11-19T20:11:31;100681.4;;;16.28;66.4375
59987;BME280;46181;51.498;5.392;2023-11-19T20:16:01;100703.1;;;16.31;66.43164
59987;BME280;46181;51.498;5.392;2023-11-19T20:20:31;100695.8;;;16.33;66.33203
59987;BME280;46181;51.498;5.392;2023-11-19T20:25:01;100697.3;;;16.34;66.33301
59987;BME280;46181;51.498;5.392;2023-11-19T20:29:31;100700.5;;;16.36;66.28027
59987;BME280;46181;51.498;5.392;2023-11-19T20:34:01;100703.9;;;16.39;66.24023
59987;BME280;46181;51.498;5.392;2023-11-19T20:38:31;100703.7;;;16.42;66.16406
59987;BME280;46181;51.498;5.392;2023-11-19T20:43:01;100708.7;;;16.46;66.11133
59987;BME280;46181;51.498;5.392;2023-11-19T20:47:31;100710.3;;;16.49;66.00195
59987;BME280;46181;51.498;5.392;2023-11-19T20:52:01;100714.6;;;16.49;65.99219
59987;BME280;46181;51.498;5.392;2023-11-19T20:56:31;100714.5;;;16.51;65.97168
59987;BME280;46181;51.498;5.392;2023-11-19T21:01:01;100712.1;;;16.53;65.90723
59987;BME280;46181;51.498;5.392;2023-11-19T21:05:31;100713.8;;;16.53;65.82813
59987;BME280;46181;51.498;5.392;2023-11-19T21:10:01;100708.8;;;16.53;65.88477
59987;BME280;46181;51.498;5.392;2023-11-19T21:14:31;100712.8;;;16.54;65.87305
59987;BME280;46181;51.498;5.392;2023-11-19T21:19:01;100722.9;;;16.53;65.77051
59987;BME280;46181;51.498;5.392;2023-11-19T21:23:31;100718.4;;;16.49;65.69434
59987;BME280;46181;51.498;5.392;2023-11-19T21:28:01;100719.4;;;16.41;65.75195
59987;BME280;46181;51.498;5.392;2023-11-19T21:32:31;100722.1;;;16.35;65.8916
59987;BME280;46181;51.498;5.392;2023-11-19T21:37:01;100700.5;;;16.31;65.9082
59987;BME280;46181;51.498;5.392;2023-11-19T21:41:31;100715.2;;;16.27;66.05078
59987;BME280;46181;51.498;5.392;2023-11-19T21:46:01;100716.7;;;16.27;66.15332
59987;BME280;46181;51.498;5.392;2023-11-19T21:50:31;100712.1;;;16.27;66.27832
59987;BME280;46181;51.498;5.392;2023-11-19T21:55:01;100721.7;;;16.27;66.34668
59987;BME280;46181;51.498;5.392;2023-11-19T21:59:31;100722.4;;;16.32;66.45703
59987;BME280;46181;51.498;5.392;2023-11-19T22:04:01;100723;;;16.35;66.2334
59987;BME280;46181;51.498;5.392;2023-11-19T22:08:31;100724.4;;;16.33;66.19531
59987;BME280;46181;51.498;5.392;2023-11-19T22:13:01;100721;;;16.34;66.20898
59987;BME280;46181;51.498;5.392;2023-11-19T22:17:31;100729.4;;;16.31;66.19238
59987;BME280;46181;51.498;5.392;2023-11-19T22:22:01;100738.5;;;16.31;66.18164
59987;BME280;46181;51.498;5.392;2023-11-19T22:26:31;100733.8;;;16.28;66.20996
59987;BME280;46181;51.498;5.392;2023-11-19T22:31:01;100731.6;;;16.28;66.24414
59987;BME280;46181;51.498;5.392;2023-11-19T22:35:31;100736.8;;;16.29;66.38281
59987;BME280;46181;51.498;5.392;2023-11-19T22:40:01;100727.9;;;16.32;66.36621
59987;BME280;46181;51.498;5.392;2023-11-19T22:44:31;100735.7;;;16.33;66.41113
59987;BME280;46181;51.498;5.392;2023-11-19T22:49:01;100736.5;;;16.36;66.31445
59987;BME280;46181;51.498;5.392;2023-11-19T22:53:31;100742.6;;;16.37;66.30469
59987;BME280;46181;51.498;5.392;2023-11-19T22:58:01;100741.2;;;16.38;66.22559
59987;BME280;46181;51.498;5.392;2023-11-19T23:02:31;100735.9;;;16.38;66.02148
59987;BME280;46181;51.498;5.392;2023-11-19T23:07:01;100740.4;;;16.4;66.04688